Lennoxville, Canada
Current Conditions -  °F | °C
As of 5:45 AM on Thursday 27 Nov 2014 (Local Time) from CYSC Reporting Station
Light Snow Light Snow  
Wind Chill: 19°   Ceiling: 2000
Heat Index: 25°   Visibility: 1.7mi
Dew Point: 23°   Wind: 5mph
Humidity: 93%   Direction: 10°N
Pressure: 29.89"   Gusts: NA
Location:  45.37°N, 71.86°W
Report Text: CYSC 271045Z AUTO 01004KT 340V050 1 3/4SM -SN OVC020 M04/M05 A2989 RMK VIS VRB 1 1/4-3 SLP135
Loading
Personal Weather Stations






























Interactive Weather Map New forecast layout! Learn more

10-Day Weather Forecast

Advertisements
Track Severe Weather on mobile